createdAt,value
2019-05-20T00:00:31.961Z,9.60
2019-05-20T00:03:00.822Z,8.00
2019-05-20T00:05:29.787Z,7.80
2019-05-20T00:07:59.813Z,10.63
2019-05-20T00:10:28.953Z,8.53
2019-05-20T00:12:57.932Z,8.10
2019-05-20T00:15:26.801Z,9.10
2019-05-20T00:17:56.660Z,7.80
2019-05-20T00:20:25.521Z,9.40
2019-05-20T00:22:54.442Z,7.93
2019-05-20T00:25:23.378Z,7.70
2019-05-20T00:27:52.304Z,9.07
2019-05-20T00:30:21.309Z,8.60
2019-05-20T00:32:50.193Z,9.17
2019-05-20T00:35:19.215Z,7.27
2019-05-20T00:37:48.229Z,7.83
2019-05-20T00:40:17.688Z,7.73
2019-05-20T00:42:46.706Z,8.17
2019-05-20T00:45:17.219Z,8.60
2019-05-20T00:47:46.153Z,8.97
2019-05-20T00:50:15.134Z,9.13
2019-05-20T00:52:44.242Z,9.27
2019-05-20T00:55:25.564Z,7.67
2019-05-20T00:57:54.443Z,8.60
2019-05-20T01:00:24.294Z,10.20
2019-05-20T01:02:56.822Z,8.37
2019-05-20T01:05:24.330Z,7.50
2019-05-20T01:07:53.347Z,7.60
2019-05-20T01:10:22.353Z,8.03
2019-05-20T01:12:51.411Z,8.27
2019-05-20T01:15:20.410Z,7.83
2019-05-20T01:17:49.321Z,8.03
2019-05-20T01:20:19.199Z,10.87
2019-05-20T01:22:48.053Z,7.20
2019-05-20T01:25:17.966Z,8.30
2019-05-20T01:27:46.848Z,8.23
2019-05-20T01:30:16.202Z,7.67
2019-05-20T01:32:45.100Z,7.07
2019-05-20T01:35:14.092Z,7.70
2019-05-20T01:37:42.949Z,7.33
2019-05-20T01:40:12.175Z,7.87
2019-05-20T01:42:41.117Z,8.57
2019-05-20T01:45:10.482Z,8.30
2019-05-20T01:47:39.398Z,7.30
2019-05-20T01:50:09.008Z,8.00
2019-05-20T01:52:38.008Z,7.87
2019-05-20T01:55:07.041Z,8.63
2019-05-20T01:57:36.054Z,8.37
2019-05-20T02:00:08.096Z,10.83
2019-05-20T02:02:37.081Z,9.17
2019-05-20T02:05:06.757Z,8.77
2019-05-20T02:07:35.717Z,8.70
2019-05-20T02:10:05.148Z,8.47
2019-05-20T02:12:35.041Z,11.27
2019-05-20T02:15:10.177Z,7.77
2019-05-20T02:17:39.101Z,9.53
2019-05-20T02:20:08.413Z,9.57
2019-05-20T02:22:37.391Z,8.20
2019-05-20T02:25:06.536Z,8.87
2019-05-20T02:27:35.449Z,8.90
2019-05-20T02:30:04.708Z,9.57
2019-05-20T02:32:33.585Z,8.80
2019-05-20T02:35:02.533Z,10.57
2019-05-20T02:37:31.482Z,10.93
2019-05-20T02:40:00.409Z,8.90
2019-05-20T02:42:29.493Z,8.80
2019-05-20T02:44:58.329Z,9.70
2019-05-20T02:47:27.238Z,10.10
2019-05-20T02:49:56.125Z,9.80
2019-05-20T02:52:25.010Z,10.93
2019-05-20T02:54:53.978Z,10.20
2019-05-20T02:57:22.937Z,9.30
2019-05-20T02:59:51.862Z,9.97
2019-05-20T03:02:20.782Z,9.63
2019-05-20T03:04:49.820Z,10.40
2019-05-20T03:07:18.818Z,9.47
2019-05-20T03:09:47.681Z,10.63
2019-05-20T03:12:16.610Z,11.37
2019-05-20T03:14:45.556Z,10.17
2019-05-20T03:17:15.440Z,9.80
2019-05-20T03:19:44.336Z,11.27
2019-05-20T03:22:13.391Z,12.17
2019-05-20T03:24:42.345Z,12.90
2019-05-20T03:27:11.286Z,10.13
2019-05-20T03:29:40.606Z,10.10
2019-05-20T03:32:09.545Z,9.03
2019-05-20T03:34:47.737Z,10.77
2019-05-20T03:37:09.182Z,9.90
2019-05-20T03:39:38.079Z,12.70
2019-05-20T03:42:07.046Z,9.80
2019-05-20T03:44:35.857Z,11.00
2019-05-20T03:47:04.744Z,10.40
2019-05-20T03:49:33.629Z,11.90
2019-05-20T03:52:02.504Z,12.77
2019-05-20T03:54:31.388Z,12.30
2019-05-20T03:57:00.377Z,10.90
2019-05-20T03:59:29.191Z,12.27
2019-05-20T04:01:58.088Z,11.73
2019-05-20T04:04:26.934Z,15.17
2019-05-20T04:06:55.892Z,18.47
2019-05-20T04:09:24.788Z,12.63
2019-05-20T04:11:53.730Z,16.30
2019-05-20T04:14:22.585Z,14.33
2019-05-20T04:16:52.321Z,12.50
2019-05-20T04:19:21.204Z,12.67
2019-05-20T04:21:51.191Z,14.43
2019-05-20T04:24:20.229Z,13.03
2019-05-20T04:26:52.533Z,14.27
2019-05-20T04:29:22.135Z,13.10
2019-05-20T04:31:51.200Z,14.90
2019-05-20T04:34:20.199Z,13.80
2019-05-20T04:36:49.226Z,14.03
2019-05-20T04:39:18.123Z,15.20
2019-05-20T04:41:47.125Z,16.73
2019-05-20T04:44:17.023Z,15.30
2019-05-20T04:46:46.025Z,18.30
2019-05-20T04:49:14.967Z,23.37
2019-05-20T04:51:49.858Z,17.83
2019-05-20T04:54:19.837Z,17.33
2019-05-20T04:56:51.758Z,16.13
2019-05-20T04:59:53.990Z,20.07
2019-05-20T05:06:41.499Z,17.00
2019-05-20T05:11:29.289Z,20.50
2019-05-20T05:17:16.875Z,18.07
2019-05-20T05:20:58.061Z,18.37
2019-05-20T05:23:39.988Z,18.93
2019-05-20T05:26:09.181Z,18.83
2019-05-20T05:28:38.144Z,21.17
2019-05-20T05:31:11.754Z,17.73
2019-05-20T05:33:40.861Z,21.07
2019-05-20T05:36:14.960Z,20.10
2019-05-20T05:38:43.985Z,22.57
2019-05-20T05:41:13.949Z,20.77
2019-05-20T05:43:45.880Z,22.90
2019-05-20T05:46:14.821Z,21.77
2019-05-20T05:48:43.846Z,21.00
2019-05-20T05:51:12.809Z,22.57
2019-05-20T05:53:41.985Z,20.63
2019-05-20T05:56:10.960Z,23.57
2019-05-20T05:58:40.082Z,21.60
2019-05-20T06:01:09.044Z,22.03
2019-05-20T06:03:38.092Z,21.00
2019-05-20T06:06:12.610Z,20.80
2019-05-20T06:08:38.223Z,20.30
2019-05-20T06:11:07.395Z,22.60
2019-05-20T06:13:36.317Z,23.13
2019-05-20T06:16:05.327Z,21.60
2019-05-20T06:18:34.354Z,19.77
2019-05-20T06:21:03.340Z,23.47
2019-05-20T06:23:32.474Z,22.77
2019-05-20T06:26:01.608Z,22.17
2019-05-20T06:28:30.674Z,23.13
2019-05-20T06:30:59.581Z,22.23
2019-05-20T06:33:28.605Z,19.13
2019-05-20T06:35:57.673Z,21.77
2019-05-20T06:38:46.024Z,23.33
2019-05-20T06:41:15.727Z,19.43
2019-05-20T06:43:44.711Z,21.03
2019-05-20T06:46:13.697Z,20.57
2019-05-20T06:48:42.687Z,22.50
2019-05-20T06:51:11.602Z,20.13
2019-05-20T06:53:40.438Z,20.90
2019-05-20T06:56:09.378Z,24.13
2019-05-20T06:58:38.303Z,24.07
2019-05-20T07:01:07.245Z,22.00
2019-05-20T07:03:36.361Z,23.33
2019-05-20T07:06:05.390Z,20.63
2019-05-20T07:08:34.222Z,18.83
2019-05-20T07:11:03.145Z,20.00
2019-05-20T07:13:32.060Z,20.23
2019-05-20T07:16:01.049Z,19.30
2019-05-20T07:18:29.886Z,19.20
2019-05-20T07:20:58.736Z,19.67
2019-05-20T07:23:46.873Z,26.90
2019-05-20T07:26:15.769Z,20.60
2019-05-20T07:28:44.774Z,24.60
2019-05-20T07:31:13.807Z,23.57
2019-05-20T07:33:42.696Z,20.93
2019-05-20T07:36:11.623Z,25.63
2019-05-20T07:38:40.640Z,23.53
2019-05-20T07:41:09.538Z,23.30
2019-05-20T07:43:38.479Z,22.50
2019-05-20T07:46:08.667Z,25.03
2019-05-20T07:48:38.384Z,23.93
2019-05-20T07:51:08.831Z,21.80
2019-05-20T07:53:37.961Z,21.90
2019-05-20T07:56:12.525Z,25.90
2019-05-20T07:58:45.026Z,25.67
2019-05-20T08:01:13.989Z,26.03
2019-05-20T08:03:42.901Z,24.93
2019-05-20T08:06:12.019Z,23.00
2019-05-20T08:08:41.004Z,29.67
2019-05-20T08:11:09.996Z,25.27
2019-05-20T08:13:38.979Z,29.87
2019-05-20T08:16:07.969Z,26.47
2019-05-20T08:18:36.965Z,26.03
2019-05-20T08:21:05.970Z,30.27
2019-05-20T08:23:34.897Z,28.70
2019-05-20T08:26:03.938Z,29.10
2019-05-20T08:28:33.325Z,29.33
2019-05-20T08:31:02.273Z,34.10
2019-05-20T08:33:31.350Z,33.27
2019-05-20T08:36:00.246Z,34.60
2019-05-20T08:38:29.254Z,33.60
2019-05-20T08:40:58.233Z,30.87
2019-05-20T08:43:27.152Z,39.50
2019-05-20T08:45:56.137Z,33.70
2019-05-20T08:48:25.058Z,30.40
2019-05-20T08:50:53.956Z,33.00
2019-05-20T08:53:22.954Z,33.47
2019-05-20T08:55:51.816Z,32.17
2019-05-20T08:58:20.826Z,29.70
2019-05-20T09:00:49.733Z,33.73
2019-05-20T09:03:18.670Z,29.13
2019-05-20T09:05:47.576Z,33.00
2019-05-20T09:08:16.518Z,28.87
2019-05-20T09:10:45.437Z,29.20
2019-05-20T09:13:14.369Z,31.50
2019-05-20T09:15:45.455Z,31.40
2019-05-20T09:18:14.091Z,29.53
2019-05-20T09:20:43.162Z,31.00
2019-05-20T09:23:12.176Z,31.00
2019-05-20T09:25:41.160Z,32.63
2019-05-20T09:28:10.153Z,33.73
2019-05-20T09:30:39.159Z,31.93
2019-05-20T09:33:08.145Z,30.93
2019-05-20T09:35:37.145Z,30.33
2019-05-20T09:38:19.584Z,28.47
2019-05-20T09:40:39.041Z,31.40
2019-05-20T09:43:08.717Z,28.40
2019-05-20T09:45:37.746Z,30.30
2019-05-20T09:48:07.322Z,28.10
2019-05-20T09:50:36.349Z,33.03
2019-05-20T09:53:07.031Z,35.17
2019-05-20T09:55:36.385Z,33.87
2019-05-20T09:58:05.822Z,29.97
2019-05-20T10:00:34.815Z,32.97
2019-05-20T10:03:04.031Z,31.37
2019-05-20T10:05:33.106Z,32.03
2019-05-20T10:08:02.118Z,30.93
2019-05-20T10:10:31.182Z,31.23
2019-05-20T10:13:00.218Z,35.30
2019-05-20T10:15:29.344Z,30.17
2019-05-20T10:17:58.367Z,29.13
2019-05-20T10:20:27.302Z,34.00
2019-05-20T10:22:56.773Z,32.20
2019-05-20T10:25:25.783Z,33.87
2019-05-20T10:27:57.590Z,39.53
2019-05-20T10:30:25.716Z,32.53
2019-05-20T10:32:54.590Z,34.17
2019-05-20T10:35:23.578Z,33.00
2019-05-20T10:37:53.546Z,40.03
2019-05-20T10:40:22.538Z,40.67
2019-05-20T10:42:51.464Z,40.50
2019-05-20T10:45:20.548Z,35.87
2019-05-20T10:47:49.593Z,34.10
2019-05-20T10:50:18.614Z,35.07
2019-05-20T10:52:47.443Z,38.97
2019-05-20T10:55:16.861Z,39.63
2019-05-20T10:57:45.814Z,41.97
2019-05-20T11:00:15.136Z,41.20
2019-05-20T11:02:43.993Z,38.77
2019-05-20T11:05:13.075Z,40.70
2019-05-20T11:07:42.080Z,40.73
2019-05-20T11:10:11.526Z,44.47
2019-05-20T11:12:40.431Z,42.23
2019-05-20T11:15:09.605Z,40.60
2019-05-20T11:17:38.422Z,44.83
2019-05-20T11:20:07.651Z,47.63
2019-05-20T11:22:36.630Z,42.47
2019-05-20T11:25:06.852Z,38.63
2019-05-20T11:27:35.890Z,39.50
2019-05-20T11:30:06.041Z,42.20
2019-05-20T11:32:35.134Z,44.27
2019-05-20T11:35:04.273Z,39.93
2019-05-20T11:37:33.414Z,45.17
2019-05-20T11:40:02.884Z,41.50
2019-05-20T11:42:32.358Z,42.93
2019-05-20T11:45:01.278Z,40.40
2019-05-20T11:47:30.517Z,39.33
2019-05-20T11:49:59.450Z,41.80
2019-05-20T11:52:29.521Z,42.87
2019-05-20T11:54:58.462Z,43.73
2019-05-20T11:57:27.486Z,44.83
2019-05-20T11:59:56.353Z,45.70
2019-05-20T12:02:27.654Z,48.60
2019-05-20T12:04:56.760Z,47.10
2019-05-20T12:07:25.783Z,42.30
2019-05-20T12:09:54.848Z,44.03
2019-05-20T12:12:23.844Z,52.10
2019-05-20T12:14:52.751Z,44.50
2019-05-20T12:17:21.641Z,48.00
2019-05-20T12:19:50.641Z,43.07
2019-05-20T12:22:20.660Z,45.20
2019-05-20T12:24:51.746Z,46.60
2019-05-20T12:27:20.432Z,42.97
2019-05-20T12:29:49.345Z,53.30
2019-05-20T12:32:18.300Z,51.93
2019-05-20T12:34:47.231Z,53.90
2019-05-20T12:37:21.947Z,49.70
2019-05-20T12:40:05.791Z,54.00
2019-05-20T12:42:21.581Z,55.43
2019-05-20T12:44:50.509Z,53.30
2019-05-20T12:47:19.398Z,49.03
2019-05-20T12:49:48.243Z,51.43
2019-05-20T12:52:17.070Z,48.20
2019-05-20T12:54:45.899Z,51.73
2019-05-20T12:57:14.734Z,50.83
2019-05-20T12:59:43.557Z,45.23
2019-05-20T13:02:17.066Z,48.23
2019-05-20T13:04:42.946Z,48.70
2019-05-20T13:07:11.799Z,50.70
2019-05-20T13:09:40.653Z,48.63
2019-05-20T13:12:09.642Z,49.57
2019-05-20T13:14:38.544Z,51.07
2019-05-20T13:17:07.477Z,47.47
2019-05-20T13:19:36.522Z,50.03
2019-05-20T13:22:07.949Z,51.10
2019-05-20T13:24:37.516Z,46.40
2019-05-20T13:27:06.460Z,45.87
2019-05-20T13:29:35.285Z,49.33
2019-05-20T13:32:04.776Z,44.43
2019-05-20T13:34:33.711Z,48.63
2019-05-20T13:37:02.987Z,50.27
2019-05-20T13:39:31.967Z,45.57
2019-05-20T13:42:00.994Z,49.83
2019-05-20T13:44:29.859Z,48.47
2019-05-20T13:46:58.726Z,51.00
2019-05-20T13:49:27.748Z,49.83
2019-05-20T13:51:56.565Z,46.30
2019-05-20T13:54:25.537Z,44.77
2019-05-20T13:56:54.401Z,44.90
2019-05-20T13:59:23.415Z,45.07
2019-05-20T14:01:53.623Z,47.87
2019-05-20T14:04:22.659Z,48.73
2019-05-20T14:06:51.519Z,51.50
2019-05-20T14:09:20.469Z,45.67
2019-05-20T14:11:49.358Z,46.90
2019-05-20T14:14:18.223Z,43.20
2019-05-20T14:16:47.213Z,48.40
2019-05-20T14:19:16.117Z,48.33
2019-05-20T14:21:44.989Z,46.43
2019-05-20T14:24:13.902Z,44.87
2019-05-20T14:26:42.813Z,41.90
2019-05-20T14:29:11.816Z,52.30
2019-05-20T14:31:40.749Z,55.80
2019-05-20T14:34:09.697Z,50.93
2019-05-20T14:36:40.326Z,51.20
2019-05-20T14:39:09.269Z,50.30
2019-05-20T14:41:39.187Z,60.23
2019-05-20T14:44:08.106Z,58.43
2019-05-20T14:46:37.946Z,57.20
2019-05-20T14:49:06.983Z,54.80
2019-05-20T14:51:35.840Z,64.10
2019-05-20T14:54:04.748Z,56.20
2019-05-20T14:56:33.550Z,55.60
2019-05-20T14:59:02.574Z,60.80
2019-05-20T15:01:31.573Z,55.43
2019-05-20T15:04:00.493Z,54.57
2019-05-20T15:06:29.509Z,54.40
2019-05-20T15:08:58.431Z,49.87
2019-05-20T15:11:37.837Z,56.53
2019-05-20T15:14:00.250Z,52.00
2019-05-20T15:16:29.891Z,49.43
2019-05-20T15:18:58.761Z,53.03
2019-05-20T15:21:29.549Z,48.40
2019-05-20T15:23:58.417Z,51.63
2019-05-20T15:26:27.391Z,43.20
2019-05-20T15:28:56.263Z,46.77
2019-05-20T15:31:25.196Z,49.73
2019-05-20T15:33:57.355Z,51.33
2019-05-20T15:36:26.269Z,45.37
2019-05-20T15:38:55.154Z,47.00
2019-05-20T15:41:24.136Z,50.53
2019-05-20T15:43:53.057Z,52.13
2019-05-20T15:46:22.057Z,50.60
2019-05-20T15:48:50.994Z,50.07
2019-05-20T15:51:19.843Z,52.23
2019-05-20T15:53:49.019Z,54.23
2019-05-20T15:56:18.065Z,61.00
2019-05-20T15:58:46.923Z,58.73
2019-05-20T16:01:15.771Z,58.10
2019-05-20T16:03:44.682Z,64.07
2019-05-20T16:06:13.577Z,62.23
2019-05-20T16:08:43.497Z,54.40
2019-05-20T16:11:18.423Z,64.03
2019-05-20T16:13:47.335Z,59.20
2019-05-20T16:16:17.290Z,67.97
2019-05-20T16:18:46.291Z,60.57
2019-05-20T16:21:15.225Z,69.20
2019-05-20T16:23:44.153Z,73.50
2019-05-20T16:26:13.128Z,68.30
2019-05-20T16:28:41.974Z,70.50
2019-05-20T16:31:10.968Z,62.03
2019-05-20T16:33:39.877Z,71.03
2019-05-20T16:36:08.813Z,65.57
2019-05-20T16:38:37.759Z,69.40
2019-05-20T16:41:06.736Z,69.30
2019-05-20T16:43:35.585Z,69.60
2019-05-20T16:46:04.569Z,71.67
2019-05-20T16:48:33.478Z,75.17
2019-05-20T16:51:02.445Z,68.73
2019-05-20T16:53:31.373Z,67.40
2019-05-20T16:56:00.274Z,74.40
2019-05-20T16:58:29.193Z,72.53
2019-05-20T17:00:58.126Z,75.20
2019-05-20T17:03:27.115Z,75.90
2019-05-20T17:05:56.015Z,68.57
2019-05-20T17:08:24.961Z,62.03
2019-05-20T17:10:55.899Z,64.93
2019-05-20T17:13:24.718Z,58.00
2019-05-20T17:15:53.631Z,49.13
2019-05-20T17:18:22.601Z,62.67
2019-05-20T17:20:52.424Z,60.00
2019-05-20T17:23:22.411Z,59.87
2019-05-20T17:25:51.340Z,55.63
2019-05-20T17:28:20.598Z,56.13
2019-05-20T17:30:49.513Z,63.87
2019-05-20T17:33:18.441Z,62.27
2019-05-20T17:35:47.333Z,58.13
2019-05-20T17:38:16.226Z,65.17
2019-05-20T17:40:45.061Z,56.43
2019-05-20T17:43:14.073Z,71.63
2019-05-20T17:45:42.976Z,78.00
2019-05-20T17:48:11.911Z,71.87
2019-05-20T17:50:40.917Z,69.90
2019-05-20T17:53:09.801Z,78.80
2019-05-20T17:55:38.798Z,74.03
2019-05-20T17:58:07.669Z,71.80
2019-05-20T18:00:36.646Z,73.13
2019-05-20T18:03:05.627Z,76.00
2019-05-20T18:05:34.637Z,86.10
2019-05-20T18:08:03.606Z,90.17
2019-05-20T18:10:33.521Z,84.83
2019-05-20T18:13:02.415Z,83.87
2019-05-20T18:15:31.400Z,86.37
2019-05-20T18:18:00.345Z,87.03
2019-05-20T18:20:30.278Z,93.57
2019-05-20T18:22:59.258Z,89.27
2019-05-20T18:25:28.173Z,92.83
2019-05-20T18:27:57.125Z,94.13
2019-05-20T18:30:26.053Z,85.10
2019-05-20T18:32:54.965Z,100.67
2019-05-20T18:35:23.960Z,110.43
2019-05-20T18:37:52.865Z,104.57
2019-05-20T18:40:21.934Z,112.20
2019-05-20T18:42:50.855Z,124.47
2019-05-20T18:45:19.853Z,129.90
2019-05-20T18:47:48.834Z,120.10
2019-05-20T18:50:18.804Z,120.43
2019-05-20T18:52:47.700Z,134.40
2019-05-20T18:55:16.707Z,139.87
2019-05-20T18:57:45.701Z,131.03
2019-05-20T19:00:16.631Z,129.30
2019-05-20T19:02:45.545Z,136.10
2019-05-20T19:05:15.039Z,121.63
2019-05-20T19:07:44.205Z,130.07
2019-05-20T19:10:13.745Z,126.07
2019-05-20T19:12:42.883Z,119.27
2019-05-20T19:15:12.827Z,142.80
2019-05-20T19:17:41.765Z,133.80
2019-05-20T19:20:10.840Z,129.47
2019-05-20T19:22:39.763Z,137.97
2019-05-20T19:25:13.710Z,124.93
2019-05-20T19:27:42.657Z,130.57
2019-05-20T19:30:12.117Z,148.77
2019-05-20T19:32:40.957Z,135.00
2019-05-20T19:35:11.133Z,134.87
2019-05-20T19:37:41.013Z,131.23
2019-05-20T19:40:10.648Z,138.73
2019-05-20T19:42:39.589Z,145.70
2019-05-20T19:45:09.219Z,132.03
2019-05-20T19:47:38.178Z,133.63
2019-05-20T19:50:07.480Z,135.63
2019-05-20T19:52:36.631Z,120.50
2019-05-20T19:55:06.119Z,136.87
2019-05-20T19:57:35.069Z,133.03
2019-05-20T20:00:04.627Z,145.03
2019-05-20T20:02:33.659Z,150.57
2019-05-20T20:05:02.724Z,145.40
2019-05-20T20:07:31.638Z,156.47
2019-05-20T20:10:00.589Z,148.10
2019-05-20T20:12:32.396Z,134.40
2019-05-20T20:15:01.420Z,132.40
2019-05-20T20:17:30.384Z,135.33
2019-05-20T20:19:59.383Z,148.10
2019-05-20T20:22:28.399Z,127.73
2019-05-20T20:24:57.288Z,151.27
2019-05-20T20:27:26.277Z,147.20
2019-05-20T20:29:55.169Z,117.57
2019-05-20T20:32:37.426Z,134.73
2019-05-20T20:34:54.881Z,114.23
2019-05-20T20:37:23.814Z,116.83
2019-05-20T20:39:52.737Z,124.63
2019-05-20T20:42:21.756Z,120.67
2019-05-20T20:44:50.780Z,139.50
2019-05-20T20:47:19.809Z,160.07
2019-05-20T20:49:48.772Z,129.57
2019-05-20T20:52:17.653Z,153.03
2019-05-20T20:54:46.560Z,134.13
2019-05-20T20:57:15.432Z,150.53
2019-05-20T20:59:44.472Z,143.30
2019-05-20T21:02:13.496Z,122.37
2019-05-20T21:04:43.273Z,134.63
2019-05-20T21:07:13.726Z,134.00
2019-05-20T21:09:42.692Z,143.33
2019-05-20T21:12:11.792Z,136.50
2019-05-20T21:14:41.729Z,126.43
2019-05-20T21:17:10.761Z,130.67
2019-05-20T21:19:39.719Z,126.90
2019-05-20T21:22:08.631Z,128.63
2019-05-20T21:24:37.719Z,126.87
2019-05-20T21:27:06.859Z,125.57
2019-05-20T21:29:35.690Z,135.33
2019-05-20T21:32:07.498Z,138.50
2019-05-20T21:34:36.425Z,126.17
2019-05-20T21:37:05.417Z,128.30
2019-05-20T21:39:34.425Z,132.43
2019-05-20T21:42:03.410Z,117.50
2019-05-20T21:44:35.449Z,119.33
2019-05-20T21:47:04.375Z,111.87
2019-05-20T21:49:33.321Z,126.23
2019-05-20T21:52:02.292Z,121.67
2019-05-20T21:54:31.272Z,104.53
2019-05-20T21:57:00.148Z,99.73
2019-05-20T21:59:29.125Z,100.73
2019-05-20T22:01:58.081Z,92.40
2019-05-20T22:04:27.068Z,92.80
2019-05-20T22:06:56.366Z,79.07
2019-05-20T22:09:26.309Z,79.90
2019-05-20T22:11:55.294Z,93.07
2019-05-20T22:14:24.317Z,88.90
2019-05-20T22:16:53.505Z,101.17
2019-05-20T22:19:22.485Z,86.90
2019-05-20T22:22:00.183Z,106.27
2019-05-20T22:24:29.188Z,98.17
2019-05-20T22:26:58.134Z,89.90
2019-05-20T22:29:27.078Z,96.87
2019-05-20T22:32:14.713Z,85.93
2019-05-20T22:34:53.172Z,104.57
2019-05-20T22:37:14.417Z,94.27
2019-05-20T22:39:43.362Z,80.77
2019-05-20T22:42:12.291Z,89.87
2019-05-20T22:44:41.242Z,89.50
2019-05-20T22:47:10.234Z,84.00
2019-05-20T22:49:39.161Z,86.10
2019-05-20T22:52:08.145Z,79.37
2019-05-20T22:54:37.083Z,79.03
2019-05-20T22:57:06.058Z,72.43
2019-05-20T22:59:34.989Z,69.93
2019-05-20T23:02:04.081Z,77.77
2019-05-20T23:05:06.411Z,70.90
2019-05-20T23:07:35.417Z,66.50
2019-05-20T23:10:04.829Z,62.70
2019-05-20T23:12:33.749Z,56.23
2019-05-20T23:15:02.868Z,47.20
2019-05-20T23:17:31.718Z,43.17
2019-05-20T23:20:00.621Z,34.60
2019-05-20T23:22:29.592Z,38.87
2019-05-20T23:24:58.515Z,39.10
2019-05-20T23:27:27.390Z,31.87
2019-05-20T23:29:56.436Z,27.87
2019-05-20T23:32:25.338Z,28.30
2019-05-20T23:34:54.282Z,33.60
2019-05-20T23:37:23.225Z,28.23
2019-05-20T23:39:52.305Z,33.77
2019-05-20T23:42:21.321Z,26.90
2019-05-20T23:44:50.269Z,27.20
2019-05-20T23:47:19.231Z,31.87
2019-05-20T23:49:48.219Z,27.00
2019-05-20T23:52:17.113Z,26.73
2019-05-20T23:54:46.001Z,31.07
2019-05-20T23:57:14.997Z,28.30
2019-05-20T23:59:43.897Z,26.23
